VLG35MB LIRZ-LIPZ
Flight info
| Callsign | VLG35MB |
|---|---|
| Flight time | N/A |
| Altitude | 28000 |
| Route | LAKOX Q25 VERUN DCT GAVRA DCT BAGNO DCT PELEG DCT SUKOM Q125 NIMUM Z43 SOVUB/N0365F180 Z43 OTGIG |
| Aircraft | A321/M-SDE3FGHIRWY/LB1 |
Departure
| Time | 2026-05-05 20:59 |
|---|---|
| Airport | Perugia San Francesco d'Assisi – Umbria International Airport (LIRZ) |
Arrival
| Time | N/A |
|---|---|
| Airport | Venice Marco Polo Airport (LIPZ) |
| Time | Latitude | Longitude | Altitude | Speed | Heading |
|---|---|---|---|---|---|
| 2026-05-05 20:51 | 43.09513 | 12.50384 | 668 ft | 0 kts | 249° |
| 2026-05-05 20:52 | 43.09513 | 12.50383 | 669 ft | 0 kts | 249° |
| 2026-05-05 20:53 | 43.09518 | 12.50374 | 669 ft | 1 kts | 306° |
| 2026-05-05 20:53 | 43.09528 | 12.50373 | 669 ft | 2 kts | 4° |
| 2026-05-05 20:53 | 43.09540 | 12.50404 | 669 ft | 4 kts | 70° |
| 2026-05-05 20:53 | 43.09555 | 12.50489 | 668 ft | 17 kts | 75° |
| 2026-05-05 20:54 | 43.09604 | 12.50654 | 669 ft | 19 kts | 66° |
| 2026-05-05 20:54 | 43.09657 | 12.50815 | 669 ft | 18 kts | 65° |
| 2026-05-05 20:54 | 43.09709 | 12.50972 | 669 ft | 18 kts | 66° |
| 2026-05-05 20:54 | 43.09755 | 12.51112 | 668 ft | 13 kts | 62° |
| 2026-05-05 20:55 | 43.09829 | 12.51174 | 669 ft | 13 kts | 15° |
| 2026-05-05 20:55 | 43.09913 | 12.51201 | 669 ft | 12 kts | 14° |
| 2026-05-05 20:55 | 43.09995 | 12.51231 | 669 ft | 12 kts | 14° |
| 2026-05-05 20:55 | 43.10073 | 12.51259 | 669 ft | 12 kts | 14° |
| 2026-05-05 20:56 | 43.10162 | 12.51290 | 669 ft | 15 kts | 14° |
| 2026-05-05 20:56 | 43.10274 | 12.51329 | 670 ft | 17 kts | 14° |
| 2026-05-05 20:56 | 43.10382 | 12.51367 | 670 ft | 16 kts | 14° |
| 2026-05-05 20:56 | 43.10491 | 12.51405 | 669 ft | 16 kts | 14° |
| 2026-05-05 20:57 | 43.10594 | 12.51441 | 669 ft | 15 kts | 14° |
| 2026-05-05 20:57 | 43.10695 | 12.51476 | 669 ft | 15 kts | 14° |
| 2026-05-05 20:57 | 43.10777 | 12.51538 | 668 ft | 14 kts | 69° |
| 2026-05-05 20:57 | 43.10765 | 12.51662 | 669 ft | 13 kts | 104° |
| 2026-05-05 20:58 | 43.10702 | 12.51709 | 669 ft | 12 kts | 192° |
| 2026-05-05 20:58 | 43.10538 | 12.51654 | 668 ft | 53 kts | 194° |
| 2026-05-05 20:58 | 43.09856 | 12.51416 | 670 ft | 143 kts | 194° |
| 2026-05-05 20:58 | 43.08762 | 12.51027 | 1180 ft | 169 kts | 195° |
| 2026-05-05 20:59 | 43.07638 | 12.50624 | 2224 ft | 161 kts | 195° |
| 2026-05-05 20:59 | 43.06514 | 12.50244 | 2624 ft | 176 kts | 194° |
| 2026-05-05 20:59 | 43.05259 | 12.49832 | 2855 ft | 194 kts | 193° |
| 2026-05-05 20:59 | 43.03925 | 12.49204 | 3038 ft | 212 kts | 206° |
| 2026-05-05 21:00 | 43.02631 | 12.48163 | 3363 ft | 219 kts | 210° |
| 2026-05-05 21:00 | 43.01309 | 12.47116 | 3789 ft | 220 kts | 209° |
| 2026-05-05 21:00 | 42.99978 | 12.46081 | 4198 ft | 221 kts | 210° |
| 2026-05-05 21:00 | 42.98632 | 12.45029 | 4588 ft | 224 kts | 210° |
| 2026-05-05 21:01 | 42.97278 | 12.43991 | 5033 ft | 223 kts | 209° |
| 2026-05-05 21:01 | 42.95918 | 12.42957 | 5454 ft | 224 kts | 209° |
| 2026-05-05 21:01 | 42.94552 | 12.41916 | 5850 ft | 227 kts | 209° |
| 2026-05-05 21:01 | 42.93159 | 12.40851 | 6430 ft | 231 kts | 209° |
| 2026-05-05 21:02 | 42.91755 | 12.39779 | 7257 ft | 231 kts | 209° |
| 2026-05-05 21:02 | 42.90352 | 12.38686 | 8019 ft | 234 kts | 214° |
| 2026-05-05 21:02 | 42.89276 | 12.37040 | 8707 ft | 237 kts | 246° |
| 2026-05-05 21:02 | 42.89024 | 12.34830 | 9390 ft | 242 kts | 279° |
| 2026-05-05 21:03 | 42.89718 | 12.32758 | 10093 ft | 246 kts | 313° |
| 2026-05-05 21:03 | 42.91168 | 12.31545 | 10807 ft | 251 kts | 347° |
| 2026-05-05 21:03 | 42.92915 | 12.31403 | 11607 ft | 254 kts | 359° |
| 2026-05-05 21:03 | 42.94689 | 12.31439 | 12347 ft | 255 kts | 359° |
| 2026-05-05 21:04 | 42.96463 | 12.31317 | 13031 ft | 256 kts | 344° |
| 2026-05-05 21:04 | 42.98092 | 12.30377 | 13696 ft | 255 kts | 322° |
| 2026-05-05 21:04 | 42.99488 | 12.28870 | 14377 ft | 257 kts | 319° |
| 2026-05-05 21:04 | 43.00876 | 12.27311 | 15058 ft | 259 kts | 318° |
| 2026-05-05 21:05 | 43.02277 | 12.25737 | 15708 ft | 262 kts | 318° |
| 2026-05-05 21:05 | 43.03710 | 12.24134 | 16144 ft | 275 kts | 318° |
| 2026-05-05 21:05 | 43.05255 | 12.22406 | 16298 ft | 298 kts | 319° |
| 2026-05-05 21:05 | 43.06898 | 12.20565 | 16431 ft | 321 kts | 319° |
| 2026-05-05 21:06 | 43.08685 | 12.18567 | 16566 ft | 342 kts | 319° |
| 2026-05-05 21:06 | 43.10579 | 12.16449 | 16701 ft | 362 kts | 319° |
| 2026-05-05 21:06 | 43.12576 | 12.14214 | 16899 ft | 378 kts | 319° |
| 2026-05-05 21:06 | 43.14640 | 12.11902 | 17381 ft | 385 kts | 319° |
| 2026-05-05 21:07 | 43.16579 | 12.09371 | 17923 ft | 387 kts | 311° |
| 2026-05-05 21:07 | 43.18415 | 12.06646 | 18500 ft | 390 kts | 311° |
| 2026-05-05 21:07 | 43.20263 | 12.03896 | 19038 ft | 393 kts | 311° |
| 2026-05-05 21:07 | 43.22122 | 12.01119 | 19581 ft | 397 kts | 310° |
| 2026-05-05 21:08 | 43.23999 | 11.98315 | 20103 ft | 400 kts | 311° |
| 2026-05-05 21:08 | 43.25990 | 11.95621 | 20602 ft | 405 kts | 319° |
| 2026-05-05 21:08 | 43.28336 | 11.93440 | 21092 ft | 411 kts | 329° |
| 2026-05-05 21:08 | 43.30947 | 11.91905 | 21574 ft | 417 kts | 340° |
| 2026-05-05 21:09 | 43.33832 | 11.91036 | 22057 ft | 422 kts | 350° |
| 2026-05-05 21:09 | 43.36746 | 11.90480 | 22536 ft | 425 kts | 350° |
| 2026-05-05 21:09 | 43.39689 | 11.89915 | 22944 ft | 428 kts | 351° |
| 2026-05-05 21:09 | 43.42612 | 11.89346 | 23296 ft | 433 kts | 350° |
| 2026-05-05 21:10 | 43.45602 | 11.88756 | 23727 ft | 436 kts | 350° |
| 2026-05-05 21:10 | 43.48627 | 11.88160 | 24143 ft | 439 kts | 350° |
| 2026-05-05 21:10 | 43.51656 | 11.87564 | 24559 ft | 442 kts | 350° |
| 2026-05-05 21:10 | 43.54714 | 11.86967 | 24977 ft | 444 kts | 350° |
| 2026-05-05 21:11 | 43.57782 | 11.86366 | 25399 ft | 446 kts | 350° |
| 2026-05-05 21:11 | 43.60867 | 11.85762 | 25792 ft | 449 kts | 350° |
| 2026-05-05 21:11 | 43.63972 | 11.85153 | 26204 ft | 451 kts | 349° |
| 2026-05-05 21:11 | 43.67085 | 11.84540 | 26604 ft | 453 kts | 349° |
| 2026-05-05 21:12 | 43.70210 | 11.83926 | 26989 ft | 455 kts | 349° |
| 2026-05-05 21:12 | 43.73357 | 11.83312 | 27351 ft | 457 kts | 349° |
| 2026-05-05 21:12 | 43.76513 | 11.82696 | 27710 ft | 459 kts | 349° |
| 2026-05-05 21:12 | 43.79646 | 11.82079 | 27955 ft | 461 kts | 349° |
| 2026-05-05 21:13 | 43.85894 | 11.80845 | 28002 ft | 449 kts | 349° |
| 2026-05-05 21:13 | 43.92070 | 11.79626 | 28013 ft | 448 kts | 349° |
| 2026-05-05 21:14 | 43.98229 | 11.78415 | 28002 ft | 447 kts | 349° |
| 2026-05-05 21:14 | 44.04381 | 11.77201 | 28003 ft | 447 kts | 349° |
| 2026-05-05 21:15 | 44.07459 | 11.76585 | 27999 ft | 447 kts | 349° |
| 2026-05-05 21:15 | 44.10536 | 11.75969 | 28000 ft | 447 kts | 349° |
| 2026-05-05 21:15 | 44.16804 | 11.74710 | 28001 ft | 459 kts | 349° |
| 2026-05-05 21:16 | 44.23133 | 11.73456 | 27997 ft | 460 kts | 349° |
| 2026-05-05 21:16 | 44.26297 | 11.72827 | 27994 ft | 460 kts | 349° |
| 2026-05-05 21:16 | 44.29468 | 11.72194 | 28000 ft | 460 kts | 349° |
| 2026-05-05 21:17 | 44.32632 | 11.71560 | 27998 ft | 460 kts | 349° |
| 2026-05-05 21:17 | 44.35804 | 11.70924 | 27996 ft | 460 kts | 349° |
| 2026-05-05 21:17 | 44.38966 | 11.70283 | 27999 ft | 460 kts | 349° |
| 2026-05-05 21:17 | 44.42131 | 11.69633 | 27995 ft | 459 kts | 349° |
| 2026-05-05 21:18 | 44.44224 | 11.69204 | 27990 ft | 459 kts | 349° |
| 2026-05-05 21:18 | 44.47393 | 11.68561 | 27994 ft | 459 kts | 349° |
| 2026-05-05 21:18 | 44.50570 | 11.67974 | 27992 ft | 461 kts | 353° |
| 2026-05-05 21:18 | 44.53776 | 11.68116 | 27987 ft | 465 kts | 6° |
| 2026-05-05 21:19 | 44.57895 | 11.69797 | 27983 ft | 469 kts | 23° |
| 2026-05-05 21:19 | 44.60712 | 11.72103 | 27982 ft | 470 kts | 32° |
| 2026-05-05 21:19 | 44.63425 | 11.74673 | 27979 ft | 471 kts | 32° |
| 2026-05-05 21:19 | 44.66143 | 11.77248 | 27977 ft | 471 kts | 32° |
| 2026-05-05 21:20 | 44.67942 | 11.78953 | 27979 ft | 472 kts | 32° |
| 2026-05-05 21:20 | 44.70663 | 11.81528 | 27980 ft | 472 kts | 32° |
| 2026-05-05 21:20 | 44.73393 | 11.84115 | 27980 ft | 472 kts | 32° |
| 2026-05-05 21:20 | 44.76113 | 11.86694 | 27968 ft | 468 kts | 32° |
| 2026-05-05 21:21 | 44.78780 | 11.89229 | 27978 ft | 457 kts | 32° |
| 2026-05-05 21:21 | 44.81385 | 11.91710 | 27993 ft | 449 kts | 32° |
| 2026-05-05 21:21 | 44.83952 | 11.94155 | 27988 ft | 441 kts | 32° |
| 2026-05-05 21:21 | 44.86474 | 11.96554 | 27989 ft | 435 kts | 32° |
| 2026-05-05 21:22 | 44.88964 | 11.98927 | 27988 ft | 429 kts | 32° |
| 2026-05-05 21:22 | 44.91417 | 12.01277 | 27989 ft | 424 kts | 34° |
| 2026-05-05 21:22 | 44.93677 | 12.03904 | 27989 ft | 420 kts | 40° |
| 2026-05-05 21:22 | 44.95846 | 12.06629 | 27989 ft | 415 kts | 40° |
| 2026-05-05 21:23 | 44.98074 | 12.09173 | 27986 ft | 409 kts | 29° |
| 2026-05-05 21:23 | 45.00640 | 12.10759 | 27987 ft | 399 kts | 11° |
| 2026-05-05 21:23 | 45.03359 | 12.11174 | 27998 ft | 389 kts | 353° |
| 2026-05-05 21:23 | 45.05968 | 12.10427 | 28001 ft | 379 kts | 335° |
| 2026-05-05 21:24 | 45.08227 | 12.08623 | 28000 ft | 370 kts | 317° |
| 2026-05-05 21:24 | 45.09949 | 12.05986 | 28000 ft | 361 kts | 297° |
| 2026-05-05 21:24 | 45.10766 | 12.02694 | 28019 ft | 358 kts | 273° |
| 2026-05-05 21:24 | 45.10473 | 11.99232 | 27988 ft | 353 kts | 248° |
| 2026-05-05 21:25 | 45.09191 | 11.96358 | 27808 ft | 343 kts | 226° |
| 2026-05-05 21:25 | 45.07385 | 11.94182 | 27442 ft | 340 kts | 217° |
| 2026-05-05 21:25 | 45.05424 | 11.92339 | 27033 ft | 338 kts | 214° |
| 2026-05-05 21:25 | 45.03459 | 11.90533 | 26613 ft | 335 kts | 215° |
| 2026-05-05 21:26 | 45.01652 | 11.88480 | 26041 ft | 335 kts | 231° |
| 2026-05-05 21:26 | 45.00578 | 11.85538 | 25147 ft | 346 kts | 257° |
| 2026-05-05 21:26 | 45.00573 | 11.82153 | 24220 ft | 360 kts | 282° |
| 2026-05-05 21:26 | 45.01700 | 11.78885 | 23239 ft | 376 kts | 306° |
| 2026-05-05 21:27 | 45.03397 | 11.76061 | 22254 ft | 386 kts | 304° |
| 2026-05-05 21:27 | 45.04540 | 11.72651 | 21227 ft | 388 kts | 280° |
| 2026-05-05 21:27 | 45.04589 | 11.68847 | 20197 ft | 391 kts | 257° |
| 2026-05-05 21:27 | 45.03524 | 11.65319 | 19159 ft | 395 kts | 234° |
| 2026-05-05 21:28 | 45.01511 | 11.62664 | 18109 ft | 402 kts | 211° |
| 2026-05-05 21:28 | 44.98866 | 11.61339 | 17041 ft | 409 kts | 189° |
| 2026-05-05 21:28 | 44.96016 | 11.61583 | 15949 ft | 418 kts | 166° |
| 2026-05-05 21:28 | 44.93388 | 11.63393 | 14843 ft | 427 kts | 144° |
| 2026-05-05 21:29 | 44.91431 | 11.66538 | 13958 ft | 431 kts | 121° |
| 2026-05-05 21:29 | 44.90465 | 11.70496 | 13177 ft | 429 kts | 99° |
| 2026-05-05 21:29 | 44.90332 | 11.74689 | 12447 ft | 423 kts | 92° |
| 2026-05-05 21:29 | 44.90032 | 11.78784 | 11594 ft | 418 kts | 99° |
| 2026-05-05 21:30 | 44.89618 | 11.82843 | 10695 ft | 417 kts | 99° |
| 2026-05-05 21:30 | 44.89203 | 11.86816 | 9967 ft | 411 kts | 99° |
| 2026-05-05 21:30 | 44.88779 | 11.90830 | 9187 ft | 406 kts | 99° |
| 2026-05-05 21:30 | 44.88361 | 11.94740 | 8428 ft | 401 kts | 99° |
| 2026-05-05 21:31 | 44.87948 | 11.98555 | 7682 ft | 395 kts | 99° |
| 2026-05-05 21:31 | 44.87539 | 12.02365 | 6884 ft | 391 kts | 99° |
| 2026-05-05 21:31 | 44.87139 | 12.06156 | 6089 ft | 389 kts | 99° |
| 2026-05-05 21:31 | 44.86740 | 12.09911 | 5363 ft | 386 kts | 99° |
| 2026-05-05 21:32 | 44.86347 | 12.13627 | 4655 ft | 381 kts | 99° |
| 2026-05-05 21:32 | 44.85961 | 12.17286 | 3900 ft | 375 kts | 99° |
| 2026-05-05 21:32 | 44.85580 | 12.20905 | 3243 ft | 369 kts | 99° |
| 2026-05-05 21:32 | 44.85212 | 12.24390 | 3015 ft | 349 kts | 99° |
| 2026-05-05 21:33 | 44.84868 | 12.27669 | 2979 ft | 327 kts | 99° |
| 2026-05-05 21:33 | 44.84551 | 12.30722 | 2983 ft | 304 kts | 99° |
| 2026-05-05 21:33 | 44.84313 | 12.33581 | 3074 ft | 283 kts | 90° |
| 2026-05-05 21:33 | 44.84656 | 12.36192 | 3875 ft | 263 kts | 69° |
| 2026-05-05 21:34 | 44.85505 | 12.38359 | 5303 ft | 246 kts | 52° |
| 2026-05-05 21:34 | 44.86726 | 12.39994 | 6328 ft | 242 kts | 32° |
| 2026-05-05 21:34 | 44.88261 | 12.40960 | 7133 ft | 242 kts | 11° |
| 2026-05-05 21:34 | 44.89934 | 12.41162 | 7898 ft | 243 kts | 353° |
| 2026-05-05 21:35 | 44.91627 | 12.41005 | 8687 ft | 246 kts | 354° |
| 2026-05-05 21:35 | 44.93321 | 12.40873 | 9452 ft | 248 kts | 355° |
| 2026-05-05 21:35 | 44.95069 | 12.40747 | 9861 ft | 253 kts | 355° |
| 2026-05-05 21:35 | 44.96835 | 12.40630 | 9688 ft | 258 kts | 355° |
| 2026-05-05 21:36 | 44.98675 | 12.40509 | 9133 ft | 266 kts | 355° |
| 2026-05-05 21:36 | 45.00494 | 12.40390 | 8990 ft | 256 kts | 355° |
| 2026-05-05 21:36 | 45.02232 | 12.40273 | 8983 ft | 248 kts | 355° |
| 2026-05-05 21:36 | 45.03954 | 12.40150 | 8986 ft | 248 kts | 355° |
| 2026-05-05 21:37 | 45.05675 | 12.40025 | 8992 ft | 247 kts | 355° |
| 2026-05-05 21:37 | 45.07396 | 12.39903 | 8997 ft | 248 kts | 355° |
| 2026-05-05 21:37 | 45.09119 | 12.39781 | 9000 ft | 248 kts | 355° |
| 2026-05-05 21:37 | 45.10842 | 12.39664 | 8998 ft | 248 kts | 355° |
| 2026-05-05 21:38 | 45.12568 | 12.39547 | 8999 ft | 248 kts | 355° |
| 2026-05-05 21:38 | 45.14290 | 12.39427 | 8998 ft | 248 kts | 355° |
| 2026-05-05 21:38 | 45.16013 | 12.39303 | 8999 ft | 248 kts | 355° |
| 2026-05-05 21:38 | 45.17737 | 12.39182 | 8999 ft | 248 kts | 355° |
| 2026-05-05 21:39 | 45.19438 | 12.39064 | 8999 ft | 248 kts | 355° |
| 2026-05-05 21:39 | 45.21164 | 12.39121 | 8998 ft | 249 kts | 6° |
| 2026-05-05 21:39 | 45.22855 | 12.39683 | 8999 ft | 251 kts | 18° |
| 2026-05-05 21:39 | 45.24446 | 12.40705 | 8998 ft | 252 kts | 26° |
| 2026-05-05 21:40 | 45.26001 | 12.41846 | 8999 ft | 252 kts | 26° |
| 2026-05-05 21:40 | 45.27561 | 12.42982 | 8999 ft | 252 kts | 26° |
| 2026-05-05 21:40 | 45.29125 | 12.44117 | 8998 ft | 252 kts | 26° |
| 2026-05-05 21:40 | 45.30687 | 12.45252 | 8999 ft | 252 kts | 26° |
| 2026-05-05 21:41 | 45.32248 | 12.46387 | 8998 ft | 252 kts | 26° |
| 2026-05-05 21:41 | 45.33808 | 12.47522 | 8998 ft | 252 kts | 26° |
| 2026-05-05 21:41 | 45.35368 | 12.48657 | 8999 ft | 252 kts | 26° |
| 2026-05-05 21:41 | 45.36929 | 12.49792 | 8999 ft | 252 kts | 26° |
| 2026-05-05 21:42 | 45.38490 | 12.50932 | 8998 ft | 252 kts | 26° |
| 2026-05-05 21:42 | 45.40051 | 12.52075 | 8999 ft | 252 kts | 26° |
| 2026-05-05 21:42 | 45.41621 | 12.53197 | 8998 ft | 252 kts | 20° |
| 2026-05-05 21:42 | 45.43316 | 12.53557 | 8998 ft | 247 kts | 349° |
| 2026-05-05 21:43 | 45.44871 | 12.52662 | 8999 ft | 241 kts | 318° |
| 2026-05-05 21:43 | 45.45887 | 12.50828 | 8999 ft | 236 kts | 289° |
| 2026-05-05 21:43 | 45.46152 | 12.48564 | 8998 ft | 233 kts | 262° |
| 2026-05-05 21:43 | 45.45637 | 12.46407 | 8999 ft | 232 kts | 235° |
| 2026-05-05 21:44 | 45.44466 | 12.44857 | 8998 ft | 233 kts | 208° |
| 2026-05-05 21:44 | 45.42948 | 12.44139 | 8999 ft | 235 kts | 195° |
| 2026-05-05 21:44 | 45.41421 | 12.43332 | 8998 ft | 234 kts | 211° |
| 2026-05-05 21:44 | 45.40144 | 12.41918 | 8999 ft | 233 kts | 228° |
| 2026-05-05 21:45 | 45.39229 | 12.40029 | 8999 ft | 233 kts | 244° |
| 2026-05-05 21:45 | 45.38538 | 12.37939 | 9000 ft | 234 kts | 244° |
| 2026-05-05 21:45 | 45.37840 | 12.35854 | 8999 ft | 234 kts | 244° |
| 2026-05-05 21:45 | 45.37139 | 12.33768 | 8998 ft | 234 kts | 244° |
| 2026-05-05 21:46 | 45.36441 | 12.31684 | 8997 ft | 233 kts | 244° |
| 2026-05-05 21:46 | 45.35739 | 12.29606 | 8998 ft | 233 kts | 244° |
| 2026-05-05 21:46 | 45.35036 | 12.27530 | 8998 ft | 233 kts | 244° |
| 2026-05-05 21:46 | 45.34334 | 12.25458 | 8998 ft | 232 kts | 244° |
| 2026-05-05 21:47 | 45.33635 | 12.23389 | 8997 ft | 232 kts | 244° |
| 2026-05-05 21:47 | 45.32928 | 12.21301 | 8663 ft | 240 kts | 244° |
| 2026-05-05 21:47 | 45.32184 | 12.19116 | 8016 ft | 251 kts | 244° |
| 2026-05-05 21:47 | 45.31624 | 12.16722 | 7329 ft | 263 kts | 266° |
| 2026-05-05 21:48 | 45.32066 | 12.14183 | 6621 ft | 276 kts | 300° |
| 2026-05-05 21:48 | 45.33507 | 12.12334 | 5880 ft | 290 kts | 334° |
| 2026-05-05 21:48 | 45.35520 | 12.11843 | 5099 ft | 303 kts | 6° |
| 2026-05-05 21:48 | 45.37498 | 12.12950 | 4315 ft | 313 kts | 39° |
| 2026-05-05 21:49 | 45.38755 | 12.15355 | 4001 ft | 294 kts | 69° |
| 2026-05-05 21:49 | 45.39249 | 12.17975 | 3823 ft | 265 kts | 81° |
| 2026-05-05 21:49 | 45.39700 | 12.20477 | 3180 ft | 258 kts | 65° |
| 2026-05-05 21:49 | 45.40654 | 12.22503 | 2991 ft | 241 kts | 46° |
| 2026-05-05 21:50 | 45.41883 | 12.24107 | 2943 ft | 239 kts | 41° |
| 2026-05-05 21:50 | 45.43117 | 12.25687 | 2397 ft | 241 kts | 44° |